sensor_id;sensor_type;location;lat;lon;timestamp;pressure;altitude;pressure_sealevel;temperature;humidity
12969;BME280;6549;53.128;8.182;2023-01-31T00:01:25;101737.16;;;2.88;100.00
12969;BME280;6549;53.128;8.182;2023-01-31T00:04:26;101743.38;;;2.88;100.00
12969;BME280;6549;53.128;8.182;2023-01-31T00:07:26;101757.78;;;2.89;100.00
12969;BME280;6549;53.128;8.182;2023-01-31T00:10:26;101750.13;;;2.91;100.00
12969;BME280;6549;53.128;8.182;2023-01-31T00:13:27;101749.03;;;2.92;100.00
12969;BME280;6549;53.128;8.182;2023-01-31T00:16:27;101742.47;;;2.93;100.00
12969;BME280;6549;53.128;8.182;2023-01-31T00:19:28;101747.59;;;2.94;100.00
12969;BME280;6549;53.128;8.182;2023-01-31T00:22:28;101749.22;;;2.95;100.00
12969;BME280;6549;53.128;8.182;2023-01-31T00:25:28;101741.53;;;2.97;100.00
12969;BME280;6549;53.128;8.182;2023-01-31T00:28:29;101744.75;;;2.99;100.00
12969;BME280;6549;53.128;8.182;2023-01-31T00:31:32;101742.50;;;3.01;100.00
12969;BME280;6549;53.128;8.182;2023-01-31T00:34:38;101754.06;;;3.07;100.00
12969;BME280;6549;53.128;8.182;2023-01-31T00:37:39;101738.75;;;3.11;100.00
12969;BME280;6549;53.128;8.182;2023-01-31T00:40:39;101718.00;;;3.15;100.00
12969;BME280;6549;53.128;8.182;2023-01-31T00:43:59;101727.13;;;3.19;100.00
12969;BME280;6549;53.128;8.182;2023-01-31T00:46:59;101734.34;;;3.24;100.00
12969;BME280;6549;53.128;8.182;2023-01-31T00:49:59;101738.84;;;3.28;100.00
12969;BME280;6549;53.128;8.182;2023-01-31T00:53:00;101739.06;;;3.40;100.00
12969;BME280;6549;53.128;8.182;2023-01-31T00:56:06;101737.63;;;3.43;100.00
12969;BME280;6549;53.128;8.182;2023-01-31T00:59:07;101743.06;;;3.43;100.00
12969;BME280;6549;53.128;8.182;2023-01-31T01:02:07;101749.00;;;3.45;100.00
12969;BME280;6549;53.128;8.182;2023-01-31T01:05:08;101728.38;;;3.44;100.00
12969;BME280;6549;53.128;8.182;2023-01-31T01:08:09;101725.66;;;3.44;100.00
12969;BME280;6549;53.128;8.182;2023-01-31T01:11:12;101726.75;;;3.43;100.00
12969;BME280;6549;53.128;8.182;2023-01-31T01:14:14;101722.25;;;3.38;100.00
12969;BME280;6549;53.128;8.182;2023-01-31T01:17:17;101715.06;;;3.34;100.00
12969;BME280;6549;53.128;8.182;2023-01-31T01:20:17;101720.63;;;3.29;100.00
12969;BME280;6549;53.128;8.182;2023-01-31T01:23:19;101718.03;;;3.24;100.00
12969;BME280;6549;53.128;8.182;2023-01-31T01:26:23;101733.53;;;3.23;100.00
12969;BME280;6549;53.128;8.182;2023-01-31T01:29:24;101734.34;;;3.24;100.00
12969;BME280;6549;53.128;8.182;2023-01-31T01:32:24;101720.75;;;3.24;100.00
12969;BME280;6549;53.128;8.182;2023-01-31T01:35:25;101719.19;;;3.23;100.00
12969;BME280;6549;53.128;8.182;2023-01-31T01:38:25;101726.56;;;3.31;100.00
12969;BME280;6549;53.128;8.182;2023-01-31T01:41:25;101730.25;;;3.35;100.00
12969;BME280;6549;53.128;8.182;2023-01-31T01:47:51;101734.41;;;3.41;100.00
12969;BME280;6549;53.128;8.182;2023-01-31T01:50:53;101738.28;;;3.40;100.00
12969;BME280;6549;53.128;8.182;2023-01-31T01:53:55;101727.41;;;3.40;100.00
12969;BME280;6549;53.128;8.182;2023-01-31T01:57:00;101737.94;;;3.41;100.00
12969;BME280;6549;53.128;8.182;2023-01-31T02:03:06;101732.31;;;3.38;100.00
12969;BME280;6549;53.128;8.182;2023-01-31T02:06:07;101749.44;;;3.38;100.00
12969;BME280;6549;53.128;8.182;2023-01-31T02:09:15;101747.69;;;3.42;100.00
12969;BME280;6549;53.128;8.182;2023-01-31T02:12:18;101758.09;;;3.40;100.00
12969;BME280;6549;53.128;8.182;2023-01-31T02:15:18;101752.91;;;3.30;100.00
12969;BME280;6549;53.128;8.182;2023-01-31T02:18:20;101760.09;;;3.26;100.00
12969;BME280;6549;53.128;8.182;2023-01-31T02:28:22;101767.22;;;3.13;100.00
12969;BME280;6549;53.128;8.182;2023-01-31T02:35:12;101759.13;;;3.00;100.00
12969;BME280;6549;53.128;8.182;2023-01-31T02:45:00;101743.44;;;2.97;100.00
12969;BME280;6549;53.128;8.182;2023-01-31T02:51:30;101736.44;;;2.96;100.00
12969;BME280;6549;53.128;8.182;2023-01-31T02:54:33;101736.84;;;2.89;100.00
12969;BME280;6549;53.128;8.182;2023-01-31T02:57:57;101738.59;;;2.85;100.00
12969;BME280;6549;53.128;8.182;2023-01-31T03:00:57;101725.13;;;2.80;100.00
12969;BME280;6549;53.128;8.182;2023-01-31T03:04:02;101728.19;;;2.79;100.00
12969;BME280;6549;53.128;8.182;2023-01-31T03:07:06;101723.34;;;2.76;100.00
12969;BME280;6549;53.128;8.182;2023-01-31T03:10:14;101724.47;;;2.75;100.00
12969;BME280;6549;53.128;8.182;2023-01-31T03:16:31;101710.72;;;2.71;100.00
12969;BME280;6549;53.128;8.182;2023-01-31T03:23:11;101706.53;;;2.65;100.00
12969;BME280;6549;53.128;8.182;2023-01-31T03:26:14;101703.66;;;2.70;100.00
12969;BME280;6549;53.128;8.182;2023-01-31T03:29:17;101707.81;;;2.67;100.00
12969;BME280;6549;53.128;8.182;2023-01-31T03:32:32;101695.69;;;2.65;100.00
12969;BME280;6549;53.128;8.182;2023-01-31T03:35:35;101685.00;;;2.68;100.00
12969;BME280;6549;53.128;8.182;2023-01-31T03:38:50;101695.06;;;2.68;100.00
12969;BME280;6549;53.128;8.182;2023-01-31T03:42:04;101690.59;;;2.72;100.00
12969;BME280;6549;53.128;8.182;2023-01-31T03:45:11;101687.91;;;2.72;100.00
12969;BME280;6549;53.128;8.182;2023-01-31T03:48:14;101686.78;;;2.73;100.00
12969;BME280;6549;53.128;8.182;2023-01-31T03:51:22;101691.59;;;2.76;100.00
12969;BME280;6549;53.128;8.182;2023-01-31T03:54:28;101699.44;;;2.78;100.00
12969;BME280;6549;53.128;8.182;2023-01-31T03:57:37;101694.81;;;2.78;100.00
12969;BME280;6549;53.128;8.182;2023-01-31T04:00:41;101687.94;;;2.81;100.00
12969;BME280;6549;53.128;8.182;2023-01-31T04:03:46;101697.56;;;2.87;100.00
12969;BME280;6549;53.128;8.182;2023-01-31T04:06:48;101688.94;;;2.85;100.00
12969;BME280;6549;53.128;8.182;2023-01-31T04:09:48;101689.09;;;2.88;100.00
12969;BME280;6549;53.128;8.182;2023-01-31T04:12:49;101684.66;;;2.92;100.00
12969;BME280;6549;53.128;8.182;2023-01-31T04:15:49;101679.22;;;2.92;100.00
12969;BME280;6549;53.128;8.182;2023-01-31T04:18:49;101678.63;;;2.95;100.00
12969;BME280;6549;53.128;8.182;2023-01-31T04:21:50;101672.56;;;2.98;100.00
12969;BME280;6549;53.128;8.182;2023-01-31T04:24:51;101669.84;;;2.98;100.00
12969;BME280;6549;53.128;8.182;2023-01-31T04:27:54;101671.91;;;3.01;100.00
12969;BME280;6549;53.128;8.182;2023-01-31T04:30:55;101663.59;;;2.98;100.00
12969;BME280;6549;53.128;8.182;2023-01-31T04:33:56;101656.91;;;2.95;100.00
12969;BME280;6549;53.128;8.182;2023-01-31T04:36:57;101650.97;;;2.93;100.00
12969;BME280;6549;53.128;8.182;2023-01-31T04:39:57;101654.47;;;2.94;100.00
12969;BME280;6549;53.128;8.182;2023-01-31T04:42:57;101660.84;;;2.89;100.00
12969;BME280;6549;53.128;8.182;2023-01-31T04:45:58;101661.78;;;2.85;100.00
12969;BME280;6549;53.128;8.182;2023-01-31T04:48:58;101659.41;;;2.83;100.00
12969;BME280;6549;53.128;8.182;2023-01-31T04:51:59;101653.75;;;2.80;100.00
12969;BME280;6549;53.128;8.182;2023-01-31T04:54:59;101651.38;;;2.78;100.00
12969;BME280;6549;53.128;8.182;2023-01-31T04:58:00;101652.97;;;2.79;100.00
12969;BME280;6549;53.128;8.182;2023-01-31T05:01:00;101654.28;;;2.82;100.00
12969;BME280;6549;53.128;8.182;2023-01-31T05:04:00;101648.34;;;2.80;100.00
12969;BME280;6549;53.128;8.182;2023-01-31T05:07:01;101648.03;;;2.81;100.00
12969;BME280;6549;53.128;8.182;2023-01-31T05:10:01;101639.09;;;2.81;100.00
12969;BME280;6549;53.128;8.182;2023-01-31T05:13:01;101630.66;;;2.82;100.00
12969;BME280;6549;53.128;8.182;2023-01-31T05:16:02;101619.78;;;2.82;100.00
12969;BME280;6549;53.128;8.182;2023-01-31T05:19:02;101623.31;;;2.83;100.00
12969;BME280;6549;53.128;8.182;2023-01-31T05:22:03;101608.00;;;2.87;100.00
12969;BME280;6549;53.128;8.182;2023-01-31T05:25:03;101602.22;;;2.88;100.00
12969;BME280;6549;53.128;8.182;2023-01-31T05:28:04;101605.91;;;2.92;100.00
12969;BME280;6549;53.128;8.182;2023-01-31T05:31:06;101603.19;;;2.92;100.00
12969;BME280;6549;53.128;8.182;2023-01-31T05:34:07;101611.84;;;2.94;100.00
12969;BME280;6549;53.128;8.182;2023-01-31T05:37:09;101609.00;;;2.99;100.00
12969;BME280;6549;53.128;8.182;2023-01-31T05:40:11;101615.09;;;3.05;100.00
12969;BME280;6549;53.128;8.182;2023-01-31T05:43:11;101602.97;;;3.11;100.00
12969;BME280;6549;53.128;8.182;2023-01-31T05:46:15;101598.63;;;3.10;100.00
12969;BME280;6549;53.128;8.182;2023-01-31T05:49:15;101589.88;;;3.13;100.00
12969;BME280;6549;53.128;8.182;2023-01-31T05:52:16;101583.81;;;3.16;100.00
12969;BME280;6549;53.128;8.182;2023-01-31T05:55:16;101580.66;;;3.23;100.00
12969;BME280;6549;53.128;8.182;2023-01-31T05:58:17;101578.91;;;3.27;100.00
12969;BME280;6549;53.128;8.182;2023-01-31T06:01:22;101583.53;;;3.35;100.00
12969;BME280;6549;53.128;8.182;2023-01-31T06:04:28;101581.00;;;3.38;100.00
12969;BME280;6549;53.128;8.182;2023-01-31T06:07:31;101587.88;;;3.44;100.00
12969;BME280;6549;53.128;8.182;2023-01-31T06:10:31;101580.38;;;3.50;100.00
12969;BME280;6549;53.128;8.182;2023-01-31T06:13:32;101573.50;;;3.52;100.00
12969;BME280;6549;53.128;8.182;2023-01-31T06:16:33;101568.88;;;3.53;100.00
12969;BME280;6549;53.128;8.182;2023-01-31T06:19:33;101550.97;;;3.60;100.00
12969;BME280;6549;53.128;8.182;2023-01-31T06:22:33;101558.47;;;3.63;100.00
12969;BME280;6549;53.128;8.182;2023-01-31T06:25:34;101560.44;;;3.72;100.00
12969;BME280;6549;53.128;8.182;2023-01-31T06:28:35;101551.63;;;3.75;100.00
12969;BME280;6549;53.128;8.182;2023-01-31T06:31:36;101541.06;;;3.73;100.00
12969;BME280;6549;53.128;8.182;2023-01-31T06:34:42;101538.84;;;3.75;100.00
12969;BME280;6549;53.128;8.182;2023-01-31T06:37:43;101533.22;;;3.89;100.00
12969;BME280;6549;53.128;8.182;2023-01-31T06:40:43;101536.41;;;3.99;100.00
12969;BME280;6549;53.128;8.182;2023-01-31T06:43:44;101529.34;;;3.98;100.00
12969;BME280;6549;53.128;8.182;2023-01-31T06:46:44;101523.91;;;3.98;100.00
12969;BME280;6549;53.128;8.182;2023-01-31T06:49:44;101522.19;;;4.02;100.00
12969;BME280;6549;53.128;8.182;2023-01-31T06:52:45;101504.91;;;4.07;100.00
12969;BME280;6549;53.128;8.182;2023-01-31T06:55:46;101508.25;;;4.04;100.00
12969;BME280;6549;53.128;8.182;2023-01-31T06:58:46;101498.97;;;4.05;100.00
12969;BME280;6549;53.128;8.182;2023-01-31T07:01:47;101494.47;;;4.09;100.00
12969;BME280;6549;53.128;8.182;2023-01-31T07:04:47;101484.06;;;4.20;100.00
12969;BME280;6549;53.128;8.182;2023-01-31T07:07:48;101484.06;;;4.20;100.00
12969;BME280;6549;53.128;8.182;2023-01-31T07:10:48;101493.63;;;4.26;100.00
12969;BME280;6549;53.128;8.182;2023-01-31T07:13:50;101485.81;;;4.24;100.00
12969;BME280;6549;53.128;8.182;2023-01-31T07:16:50;101479.72;;;4.27;100.00
12969;BME280;6549;53.128;8.182;2023-01-31T07:19:50;101477.16;;;4.22;100.00
12969;BME280;6549;53.128;8.182;2023-01-31T07:22:58;101464.34;;;4.23;100.00
12969;BME280;6549;53.128;8.182;2023-01-31T07:26:02;101452.81;;;4.26;100.00
12969;BME280;6549;53.128;8.182;2023-01-31T07:29:02;101448.66;;;4.28;100.00
12969;BME280;6549;53.128;8.182;2023-01-31T07:32:03;101444.97;;;4.33;100.00
12969;BME280;6549;53.128;8.182;2023-01-31T07:35:07;101450.41;;;4.33;100.00
12969;BME280;6549;53.128;8.182;2023-01-31T07:38:11;101444.97;;;4.33;100.00
12969;BME280;6549;53.128;8.182;2023-01-31T07:41:11;101427.78;;;4.41;100.00
12969;BME280;6549;53.128;8.182;2023-01-31T07:44:12;101423.28;;;4.45;100.00
12969;BME280;6549;53.128;8.182;2023-01-31T07:47:12;101425.97;;;4.53;100.00
12969;BME280;6549;53.128;8.182;2023-01-31T07:50:16;101425.84;;;4.50;100.00
12969;BME280;6549;53.128;8.182;2023-01-31T07:53:17;101405.19;;;4.49;100.00
12969;BME280;6549;53.128;8.182;2023-01-31T07:56:19;101402.72;;;4.56;100.00
12969;BME280;6549;53.128;8.182;2023-01-31T07:59:20;101394.56;;;4.56;100.00
12969;BME280;6549;53.128;8.182;2023-01-31T08:02:23;101393.00;;;4.55;100.00
12969;BME280;6549;53.128;8.182;2023-01-31T08:05:45;101378.72;;;4.58;100.00
12969;BME280;6549;53.128;8.182;2023-01-31T08:08:46;101388.34;;;4.56;100.00
12969;BME280;6549;53.128;8.182;2023-01-31T08:11:46;101375.50;;;4.56;100.00
12969;BME280;6549;53.128;8.182;2023-01-31T08:14:56;101374.88;;;4.59;100.00
12969;BME280;6549;53.128;8.182;2023-01-31T08:18:06;101364.97;;;4.55;100.00
12969;BME280;6549;53.128;8.182;2023-01-31T08:21:10;101347.03;;;4.53;100.00
12969;BME280;6549;53.128;8.182;2023-01-31T08:24:25;101349.44;;;4.55;100.00
12969;BME280;6549;53.128;8.182;2023-01-31T08:28:02;101335.28;;;4.62;100.00
12969;BME280;6549;53.128;8.182;2023-01-31T08:31:03;101330.97;;;4.61;100.00
12969;BME280;6549;53.128;8.182;2023-01-31T08:34:05;101321.56;;;4.58;100.00
12969;BME280;6549;53.128;8.182;2023-01-31T08:37:06;101319.25;;;4.69;100.00
12969;BME280;6549;53.128;8.182;2023-01-31T08:40:07;101318.91;;;4.70;100.00
12969;BME280;6549;53.128;8.182;2023-01-31T08:43:08;101323.69;;;4.73;100.00
12969;BME280;6549;53.128;8.182;2023-01-31T08:46:17;101319.63;;;4.79;100.00
12969;BME280;6549;53.128;8.182;2023-01-31T08:49:17;101316.91;;;4.79;100.00
12969;BME280;6549;53.128;8.182;2023-01-31T08:52:17;101318.31;;;4.85;100.00
12969;BME280;6549;53.128;8.182;2023-01-31T08:55:18;101312.47;;;4.95;100.00
12969;BME280;6549;53.128;8.182;2023-01-31T08:58:18;101316.56;;;5.02;100.00
12969;BME280;6549;53.128;8.182;2023-01-31T09:01:20;101323.00;;;4.97;100.00
12969;BME280;6549;53.128;8.182;2023-01-31T09:04:20;101318.59;;;5.05;100.00
12969;BME280;6549;53.128;8.182;2023-01-31T09:07:21;101308.66;;;5.09;100.00
12969;BME280;6549;53.128;8.182;2023-01-31T09:10:21;101326.13;;;5.08;100.00
12969;BME280;6549;53.128;8.182;2023-01-31T09:13:22;101316.22;;;5.03;100.00
12969;BME280;6549;53.128;8.182;2023-01-31T09:16:23;101308.50;;;5.05;100.00
12969;BME280;6549;53.128;8.182;2023-01-31T09:19:24;101323.84;;;5.10;100.00
12969;BME280;6549;53.128;8.182;2023-01-31T09:22:24;101313.63;;;5.07;100.00
12969;BME280;6549;53.128;8.182;2023-01-31T09:25:25;101309.56;;;5.13;100.00
12969;BME280;6549;53.128;8.182;2023-01-31T09:28:25;101304.13;;;5.13;100.00
12969;BME280;6549;53.128;8.182;2023-01-31T09:31:26;101305.97;;;5.21;100.00
12969;BME280;6549;53.128;8.182;2023-01-31T09:34:26;101301.97;;;5.18;100.00
12969;BME280;6549;53.128;8.182;2023-01-31T09:37:30;101304.59;;;5.27;100.00
12969;BME280;6549;53.128;8.182;2023-01-31T09:40:35;101301.75;;;5.23;100.00
12969;BME280;6549;53.128;8.182;2023-01-31T09:43:40;101289.22;;;5.31;100.00
12969;BME280;6549;53.128;8.182;2023-01-31T09:46:48;101280.34;;;5.34;100.00
12969;BME280;6549;53.128;8.182;2023-01-31T09:50:03;101277.63;;;5.34;100.00
12969;BME280;6549;53.128;8.182;2023-01-31T09:53:05;101269.03;;;5.44;100.00
12969;BME280;6549;53.128;8.182;2023-01-31T09:59:21;101261.06;;;5.51;100.00
12969;BME280;6549;53.128;8.182;2023-01-31T10:09:19;101237.91;;;5.57;100.00
12969;BME280;6549;53.128;8.182;2023-01-31T10:12:37;101231.66;;;5.57;100.00
12969;BME280;6549;53.128;8.182;2023-01-31T10:15:49;101226.75;;;5.62;100.00
12969;BME280;6549;53.128;8.182;2023-01-31T10:18:57;101235.75;;;5.63;100.00
12969;BME280;6549;53.128;8.182;2023-01-31T10:22:06;101240.88;;;5.64;100.00
12969;BME280;6549;53.128;8.182;2023-01-31T10:25:41;101225.63;;;5.63;100.00
12969;BME280;6549;53.128;8.182;2023-01-31T10:32:18;101224.72;;;5.71;100.00
12969;BME280;6549;53.128;8.182;2023-01-31T10:35:24;101228.59;;;5.70;100.00
12969;BME280;6549;53.128;8.182;2023-01-31T10:38:31;101226.78;;;5.74;100.00
12969;BME280;6549;53.128;8.182;2023-01-31T10:42:37;101237.59;;;5.71;100.00
12969;BME280;6549;53.128;8.182;2023-01-31T10:45:20;101236.19;;;5.77;100.00
12969;BME280;6549;53.128;8.182;2023-01-31T10:48:22;101223.13;;;5.82;100.00
12969;BME280;6549;53.128;8.182;2023-01-31T10:57:50;101222.25;;;5.91;100.00
12969;BME280;6549;53.128;8.182;2023-01-31T11:00:51;101215.22;;;6.02;100.00
12969;BME280;6549;53.128;8.182;2023-01-31T11:03:53;101220.66;;;6.02;100.00
12969;BME280;6549;53.128;8.182;2023-01-31T11:06:53;101215.22;;;6.02;100.00
12969;BME280;6549;53.128;8.182;2023-01-31T11:09:54;101210.41;;;5.99;100.00
12969;BME280;6549;53.128;8.182;2023-01-31T11:12:57;101218.28;;;6.00;100.00
12969;BME280;6549;53.128;8.182;2023-01-31T11:16:02;101217.38;;;5.96;100.00
12969;BME280;6549;53.128;8.182;2023-01-31T11:19:14;101212.72;;;5.97;100.00
12969;BME280;6549;53.128;8.182;2023-01-31T11:22:29;101201.09;;;6.00;100.00
12969;BME280;6549;53.128;8.182;2023-01-31T11:25:31;101204.41;;;5.93;100.00
12969;BME280;6549;53.128;8.182;2023-01-31T11:28:37;101195.53;;;5.96;100.00
12969;BME280;6549;53.128;8.182;2023-01-31T11:31:40;101196.09;;;5.90;100.00
12969;BME280;6549;53.128;8.182;2023-01-31T11:35:03;101186.56;;;5.96;100.00
12969;BME280;6549;53.128;8.182;2023-01-31T11:41:40;101200.19;;;5.96;100.00
12969;BME280;6549;53.128;8.182;2023-01-31T11:44:59;101204.06;;;5.95;100.00
12969;BME280;6549;53.128;8.182;2023-01-31T11:48:38;101198.16;;;5.93;100.00
12969;BME280;6549;53.128;8.182;2023-01-31T11:51:39;101200.09;;;5.92;100.00
12969;BME280;6549;53.128;8.182;2023-01-31T11:54:44;101197.91;;;5.98;100.00
12969;BME280;6549;53.128;8.182;2023-01-31T11:57:46;101190.00;;;5.93;100.00
12969;BME280;6549;53.128;8.182;2023-01-31T12:01:06;101187.59;;;5.91;100.00
12969;BME280;6549;53.128;8.182;2023-01-31T12:04:14;101188.81;;;5.94;100.00
12969;BME280;6549;53.128;8.182;2023-01-31T12:07:25;101189.06;;;6.01;100.00
12969;BME280;6549;53.128;8.182;2023-01-31T12:10:42;101200.41;;;6.03;100.00
12969;BME280;6549;53.128;8.182;2023-01-31T12:13:47;101183.25;;;6.02;100.00
12969;BME280;6549;53.128;8.182;2023-01-31T12:16:48;101188.03;;;6.05;100.00
12969;BME280;6549;53.128;8.182;2023-01-31T12:19:57;101180.75;;;6.09;100.00
12969;BME280;6549;53.128;8.182;2023-01-31T12:23:28;101179.59;;;6.10;100.00
12969;BME280;6549;53.128;8.182;2023-01-31T12:26:48;101185.16;;;6.14;100.00
12969;BME280;6549;53.128;8.182;2023-01-31T12:33:17;101164.22;;;6.18;100.00
12969;BME280;6549;53.128;8.182;2023-01-31T12:43:22;101139.28;;;6.31;100.00
12969;BME280;6549;53.128;8.182;2023-01-31T12:53:20;101145.91;;;6.46;100.00
12969;BME280;6549;53.128;8.182;2023-01-31T12:56:44;101159.69;;;6.50;100.00
12969;BME280;6549;53.128;8.182;2023-01-31T13:03:07;101133.81;;;6.59;100.00
12969;BME280;6549;53.128;8.182;2023-01-31T13:06:15;101127.66;;;6.62;100.00
12969;BME280;6549;53.128;8.182;2023-01-31T13:09:23;101130.72;;;6.61;100.00
12969;BME280;6549;53.128;8.182;2023-01-31T13:12:29;101127.91;;;6.57;100.00
12969;BME280;6549;53.128;8.182;2023-01-31T13:15:45;101126.78;;;6.58;100.00
12969;BME280;6549;53.128;8.182;2023-01-31T13:18:49;101130.31;;;6.59;100.00
12969;BME280;6549;53.128;8.182;2023-01-31T13:21:55;101120.94;;;6.60;100.00
12969;BME280;6549;53.128;8.182;2023-01-31T13:28:47;101108.16;;;6.64;100.00
12969;BME280;6549;53.128;8.182;2023-01-31T13:32:00;101111.69;;;6.64;100.00
12969;BME280;6549;53.128;8.182;2023-01-31T13:35:17;101098.75;;;6.61;100.00
12969;BME280;6549;53.128;8.182;2023-01-31T13:38:20;101098.03;;;6.64;100.00
12969;BME280;6549;53.128;8.182;2023-01-31T13:41:26;101096.19;;;6.68;100.00
12969;BME280;6549;53.128;8.182;2023-01-31T13:44:27;101086.88;;;6.69;100.00
12969;BME280;6549;53.128;8.182;2023-01-31T13:47:32;101099.03;;;6.72;100.00
12969;BME280;6549;53.128;8.182;2023-01-31T13:50:51;101104.94;;;6.74;100.00
12969;BME280;6549;53.128;8.182;2023-01-31T13:57:34;101111.28;;;6.78;100.00
12969;BME280;6549;53.128;8.182;2023-01-31T14:00:48;101109.72;;;6.77;100.00
12969;BME280;6549;53.128;8.182;2023-01-31T14:07:19;101123.81;;;6.79;100.00
12969;BME280;6549;53.128;8.182;2023-01-31T14:23:26;101099.66;;;6.97;100.00
12969;BME280;6549;53.128;8.182;2023-01-31T14:29:43;101114.22;;;7.01;100.00
12969;BME280;6549;53.128;8.182;2023-01-31T14:32:47;101123.75;;;7.07;100.00
12969;BME280;6549;53.128;8.182;2023-01-31T15:08:43;101117.88;;;7.55;100.00
12969;BME280;6549;53.128;8.182;2023-01-31T15:11:45;101117.00;;;7.51;100.00
12969;BME280;6549;53.128;8.182;2023-01-31T15:14:46;101115.41;;;7.50;100.00
12969;BME280;6549;53.128;8.182;2023-01-31T15:17:49;101114.25;;;7.51;100.00
12969;BME280;6549;53.128;8.182;2023-01-31T15:20:58;101109.88;;;7.47;100.00
12969;BME280;6549;53.128;8.182;2023-01-31T15:24:00;101121.28;;;7.52;100.00
12969;BME280;6549;53.128;8.182;2023-01-31T15:27:05;101129.16;;;7.54;100.00
12969;BME280;6549;53.128;8.182;2023-01-31T15:30:08;101134.63;;;7.54;100.00
12969;BME280;6549;53.128;8.182;2023-01-31T15:33:16;101134.34;;;7.59;100.00
12969;BME280;6549;53.128;8.182;2023-01-31T15:36:30;101142.75;;;7.50;100.00
12969;BME280;6549;53.128;8.182;2023-01-31T15:39:37;101128.75;;;7.52;100.00
12969;BME280;6549;53.128;8.182;2023-01-31T15:42:39;101134.09;;;7.48;100.00
12969;BME280;6549;53.128;8.182;2023-01-31T15:45:39;101139.56;;;7.48;100.00
12969;BME280;6549;53.128;8.182;2023-01-31T15:48:41;101139.16;;;7.46;100.00
12969;BME280;6549;53.128;8.182;2023-01-31T15:51:42;101133.69;;;7.46;100.00
12969;BME280;6549;53.128;8.182;2023-01-31T15:54:56;101155.81;;;7.41;100.00
12969;BME280;6549;53.128;8.182;2023-01-31T15:57:58;101127.16;;;7.35;100.00
12969;BME280;6549;53.128;8.182;2023-01-31T16:01:01;101135.81;;;7.37;100.00
12969;BME280;6549;53.128;8.182;2023-01-31T16:04:02;101139.25;;;7.34;100.00
12969;BME280;6549;53.128;8.182;2023-01-31T16:07:03;101150.44;;;7.29;100.00
12969;BME280;6549;53.128;8.182;2023-01-31T16:10:04;101117.03;;;7.20;100.00
12969;BME280;6549;53.128;8.182;2023-01-31T16:13:04;101143.75;;;7.11;100.00
12969;BME280;6549;53.128;8.182;2023-01-31T16:16:07;101144.28;;;7.16;100.00
12969;BME280;6549;53.128;8.182;2023-01-31T16:19:23;101135.63;;;7.14;100.00
12969;BME280;6549;53.128;8.182;2023-01-31T16:22:25;101121.09;;;7.10;100.00
12969;BME280;6549;53.128;8.182;2023-01-31T16:25:26;101132.72;;;7.07;100.00
12969;BME280;6549;53.128;8.182;2023-01-31T16:28:29;101143.66;;;7.07;100.00
12969;BME280;6549;53.128;8.182;2023-01-31T16:31:34;101137.41;;;7.07;100.00
12969;BME280;6549;53.128;8.182;2023-01-31T16:34:42;101139.34;;;7.06;100.00
12969;BME280;6549;53.128;8.182;2023-01-31T16:37:43;101139.25;;;7.03;100.00
12969;BME280;6549;53.128;8.182;2023-01-31T16:40:46;101156.06;;;7.05;100.00
12969;BME280;6549;53.128;8.182;2023-01-31T16:43:49;101153.88;;;6.95;100.00
12969;BME280;6549;53.128;8.182;2023-01-31T16:46:50;101147.50;;;6.91;100.00
12969;BME280;6549;53.128;8.182;2023-01-31T16:49:50;101158.97;;;6.96;100.00
12969;BME280;6549;53.128;8.182;2023-01-31T16:56:24;101161.34;;;6.82;100.00
12969;BME280;6549;53.128;8.182;2023-01-31T17:02:40;101171.47;;;6.82;100.00
12969;BME280;6549;53.128;8.182;2023-01-31T17:05:43;101178.44;;;6.79;100.00
12969;BME280;6549;53.128;8.182;2023-01-31T17:08:44;101192.44;;;6.77;100.00
12969;BME280;6549;53.128;8.182;2023-01-31T17:11:45;101199.06;;;6.76;100.00
12969;BME280;6549;53.128;8.182;2023-01-31T17:14:46;101208.28;;;6.72;100.00
12969;BME280;6549;53.128;8.182;2023-01-31T17:17:46;101208.44;;;6.63;100.00
12969;BME280;6549;53.128;8.182;2023-01-31T17:20:47;101203.75;;;6.64;100.00
12969;BME280;6549;53.128;8.182;2023-01-31T17:23:50;101203.56;;;6.57;100.00
12969;BME280;6549;53.128;8.182;2023-01-31T17:26:50;101199.84;;;6.49;100.00
12969;BME280;6549;53.128;8.182;2023-01-31T17:29:50;101200.00;;;6.41;100.00
12969;BME280;6549;53.128;8.182;2023-01-31T17:32:51;101188.91;;;6.49;100.00
12969;BME280;6549;53.128;8.182;2023-01-31T17:35:52;101194.81;;;6.51;100.00
12969;BME280;6549;53.128;8.182;2023-01-31T17:38:52;101197.69;;;6.43;100.00
12969;BME280;6549;53.128;8.182;2023-01-31T17:41:53;101199.44;;;6.35;100.00
12969;BME280;6549;53.128;8.182;2023-01-31T17:44:53;101208.19;;;6.28;100.00
12969;BME280;6549;53.128;8.182;2023-01-31T17:47:53;101216.88;;;6.18;100.00
12969;BME280;6549;53.128;8.182;2023-01-31T17:50:54;101229.50;;;6.23;100.00
12969;BME280;6549;53.128;8.182;2023-01-31T17:53:54;101232.66;;;6.25;100.00
12969;BME280;6549;53.128;8.182;2023-01-31T17:56:54;101228.81;;;6.14;100.00
12969;BME280;6549;53.128;8.182;2023-01-31T17:59:55;101218.16;;;6.09;100.00
12969;BME280;6549;53.128;8.182;2023-01-31T18:02:56;101226.31;;;6.09;100.00
12969;BME280;6549;53.128;8.182;2023-01-31T18:06:02;101222.81;;;5.96;100.00
12969;BME280;6549;53.128;8.182;2023-01-31T18:09:04;101218.47;;;6.07;100.00
12969;BME280;6549;53.128;8.182;2023-01-31T18:12:06;101228.34;;;6.12;100.00
12969;BME280;6549;53.128;8.182;2023-01-31T18:15:07;101233.03;;;5.99;100.00
12969;BME280;6549;53.128;8.182;2023-01-31T18:18:08;101224.97;;;6.03;100.00
12969;BME280;6549;53.128;8.182;2023-01-31T18:21:18;101224.63;;;6.04;100.00
12969;BME280;6549;53.128;8.182;2023-01-31T18:24:19;101234.50;;;6.09;100.00
12969;BME280;6549;53.128;8.182;2023-01-31T18:27:19;101232.00;;;6.16;100.00
12969;BME280;6549;53.128;8.182;2023-01-31T18:30:19;101239.03;;;6.17;100.00
12969;BME280;6549;53.128;8.182;2023-01-31T18:33:20;101237.56;;;6.19;100.00
12969;BME280;6549;53.128;8.182;2023-01-31T18:36:21;101239.75;;;6.14;100.00
12969;BME280;6549;53.128;8.182;2023-01-31T18:39:21;101226.78;;;5.99;100.00